Time;durP1;ratioP1;P1;durP2;ratioP2;P2;SDS_P1;SDS_P2;PMS_P1;PMS_P2;Temp;Humidity;BMP_temperature;BMP_pressure;BME280_temperature;BME280_humidity;BME280_pressure;Samples;Min_cycle;Max_cycle;Signal;HPM_P1;HPM_P2
2021/07/27 00:03:56;;;;;;;21.33;18.83;;;;;;;19.00;74.07;99474.66;254183;1104;115405;-68
2021/07/27 00:09:00;;;;;;;23.10;18.57;;;;;;;19.08;73.87;99476.69;254932;1103;116022;-66
2021/07/27 00:14:05;;;;;;;20.90;18.00;;;;;;;19.14;74.19;99468.20;255664;1096;115584;-68
2021/07/27 00:19:10;;;;;;;20.30;18.20;;;;;;;19.24;73.70;99466.42;255799;1096;115477;-67
2021/07/27 00:24:14;;;;;;;20.13;18.10;;;;;;;19.27;73.71;99457.70;254894;1102;116486;-67
2021/07/27 00:29:21;;;;;;;18.63;16.60;;;;;;;19.11;72.97;99455.28;255130;1096;116960;-68
2021/07/27 00:34:26;;;;;;;21.33;17.83;;;;;;;19.00;73.61;99455.75;254668;1104;116373;-68
2021/07/27 00:39:31;;;;;;;21.43;18.53;;;;;;;19.01;73.62;99431.14;254746;1104;117002;-67
2021/07/27 00:44:36;;;;;;;23.10;18.25;;;;;;;18.97;73.78;99432.03;255164;1104;115862;-67
2021/07/27 00:49:41;;;;;;;20.48;18.43;;;;;;;18.92;73.20;99419.44;254055;1104;115306;-68
2021/07/27 00:54:47;;;;;;;27.10;17.18;;;;;;;18.85;73.18;99416.31;254284;1097;115608;-67
2021/07/27 00:59:52;;;;;;;26.78;18.90;;;;;;;18.83;73.19;99411.22;254753;1102;115945;-67
2021/07/27 01:04:58;;;;;;;19.88;17.88;;;;;;;18.68;73.02;99408.76;254910;1097;116273;-67
2021/07/27 01:10:05;;;;;;;21.93;19.03;;;;;;;18.55;73.19;99400.61;254437;1103;116570;-67
2021/07/27 01:15:10;;;;;;;22.60;19.13;;;;;;;18.44;73.20;99389.97;254329;1096;116415;-67
2021/07/27 01:47:21;;;;;;;18.05;16.25;;;;;;;18.46;73.11;99403.97;255313;1104;115402;-65
2021/07/27 01:52:28;;;;;;;17.75;15.95;;;;;;;18.35;73.15;99407.91;254632;1104;115465;-65
2021/07/27 01:57:33;;;;;;;21.07;18.90;;;;;;;18.25;73.58;99415.38;255526;1096;117734;-66
2021/07/27 02:02:39;;;;;;;18.68;16.48;;;;;;;18.24;73.50;99419.97;254830;1104;115119;-67
2021/07/27 02:07:47;;;;;;;20.80;16.60;;;;;;;18.16;73.71;99424.13;254135;1104;115561;-67
2021/07/27 02:13:01;;;;;;;20.10;18.13;;;;;;;18.22;74.16;99424.05;255176;1104;117189;-65
2021/07/27 02:18:07;;;;;;;21.08;18.93;;;;;;;18.29;74.26;99409.11;254579;1104;115124;-65
2021/07/27 02:23:11;;;;;;;18.60;16.80;;;;;;;18.33;74.23;99396.64;255369;1102;115917;-66
2021/07/27 02:28:16;;;;;;;22.25;19.00;;;;;;;18.17;74.13;99408.74;255180;1104;116299;-65
2021/07/27 02:33:23;;;;;;;22.80;17.48;;;;;;;18.18;74.32;99416.55;254887;1103;116248;-66
2021/07/27 02:38:28;;;;;;;19.85;16.00;;;;;;;18.10;74.15;99422.59;254423;1103;116589;-66
2021/07/27 02:43:32;;;;;;;19.75;16.38;;;;;;;18.06;74.47;99420.77;255226;1103;115730;-66
2021/07/27 02:48:40;;;;;;;19.73;17.63;;;;;;;18.08;74.80;99422.08;255227;1103;117969;-65
2021/07/27 02:53:44;;;;;;;23.25;20.18;;;;;;;18.11;74.81;99415.30;254317;1104;115645;-67
2021/07/27 02:58:48;;;;;;;22.97;19.17;;;;;;;18.20;75.15;99421.65;255699;1103;115755;-68
2021/07/27 03:03:52;;;;;;;22.58;20.28;;;;;;;18.31;75.06;99411.52;254365;1103;116272;-65
2021/07/27 03:14:03;;;;;;;22.68;18.08;;;;;;;18.43;75.46;99415.35;256101;1104;116621;-67
2021/07/27 03:19:08;;;;;;;22.33;19.78;;;;;;;18.46;75.29;99397.77;254922;1104;116658;-67
2021/07/27 03:24:13;;;;;;;20.68;17.30;;;;;;;18.45;75.23;99405.06;255649;1104;115874;-67
2021/07/27 03:29:18;;;;;;;20.68;17.83;;;;;;;18.59;75.45;99415.13;255421;1103;116178;-67
2021/07/27 03:34:23;;;;;;;22.63;20.20;;;;;;;18.73;75.68;99416.78;256696;1102;114635;-67
2021/07/27 03:39:29;;;;;;;21.10;19.05;;;;;;;18.70;75.13;99422.77;257060;1103;115706;-67
2021/07/27 03:44:35;;;;;;;22.28;19.93;;;;;;;18.63;75.32;99421.56;257060;1104;119247;-67
2021/07/27 03:49:41;;;;;;;27.60;22.77;;;;;;;18.81;75.75;99432.31;257288;1103;116874;-67
2021/07/27 03:54:46;;;;;;;23.63;20.88;;;;;;;18.92;75.84;99476.16;255348;1102;117064;-67
2021/07/27 03:59:51;;;;;;;30.40;20.52;;;;;;;19.05;76.00;99478.08;256653;1104;116076;-67
2021/07/27 04:04:56;;;;;;;25.75;20.60;;;;;;;19.22;76.05;99503.75;255580;1104;115960;-68
2021/07/27 04:10:05;;;;;;;22.00;18.53;;;;;;;19.36;75.96;99512.67;255752;1104;115839;-65
2021/07/27 04:15:11;;;;;;;21.08;17.43;;;;;;;19.50;76.19;99516.20;255449;1103;116071;-68
2021/07/27 04:20:16;;;;;;;21.15;17.73;;;;;;;19.56;75.87;99525.86;254968;1104;115472;-65
2021/07/27 04:25:20;;;;;;;18.90;16.90;;;;;;;19.61;75.52;99541.16;255426;1096;116627;-66
2021/07/27 04:30:26;;;;;;;27.58;18.30;;;;;;;19.56;75.66;99533.17;254256;1103;116686;-67
2021/07/27 04:35:31;;;;;;;23.68;19.03;;;;;;;19.50;75.64;99544.08;254888;1104;115391;-68
2021/07/27 04:40:35;;;;;;;20.23;18.00;;;;;;;19.47;75.50;99541.94;254737;1103;115092;-67
2021/07/27 04:45:40;;;;;;;20.38;17.58;;;;;;;19.46;75.70;99542.23;255052;1103;115746;-68
2021/07/27 04:50:46;;;;;;;20.88;17.18;;;;;;;19.48;76.06;99550.84;254909;1103;116240;-68
2021/07/27 04:55:51;;;;;;;16.90;15.10;;;;;;;19.40;76.06;99541.52;255593;1103;115131;-66
2021/07/27 05:01:02;;;;;;;21.40;17.27;;;;;;;19.33;76.07;99537.59;254042;1103;116495;-65
2021/07/27 05:06:08;;;;;;;18.43;16.63;;;;;;;19.35;76.30;99544.30;255109;1104;114923;-66
2021/07/27 05:11:17;;;;;;;16.15;14.60;;;;;;;19.27;76.40;99530.66;254222;1098;115922;-66
2021/07/27 05:16:22;;;;;;;20.20;17.83;;;;;;;19.16;76.67;99532.75;255691;1102;115974;-67
2021/07/27 05:21:27;;;;;;;19.40;16.85;;;;;;;19.16;76.97;99527.35;254503;1102;116521;-66
2021/07/27 05:26:30;;;;;;;19.18;17.35;;;;;;;19.23;77.30;99524.27;257173;1104;115769;-66
2021/07/27 05:31:35;;;;;;;25.30;19.08;;;;;;;19.28;77.14;99529.56;254809;1104;115300;-66
2021/07/27 05:36:39;;;;;;;19.50;17.60;;;;;;;19.39;77.58;99528.30;254177;1103;116948;-67
2021/07/27 05:41:44;;;;;;;20.95;18.80;;;;;;;19.48;77.24;99530.02;257082;1102;117977;-68
2021/07/27 05:46:48;;;;;;;21.75;16.45;;;;;;;19.57;77.43;99513.92;257100;1104;114768;-67
2021/07/27 05:51:54;;;;;;;20.50;15.83;;;;;;;19.59;77.08;99519.83;256416;1103;115962;-67
2021/07/27 05:56:59;;;;;;;21.38;16.78;;;;;;;19.66;77.79;99522.14;256783;1103;115097;-66
2021/07/27 06:02:04;;;;;;;19.87;17.00;;;;;;;19.77;77.40;99527.07;256613;1103;114857;-67
2021/07/27 06:07:10;;;;;;;21.35;16.83;;;;;;;19.87;77.09;99522.58;256398;1103;115937;-67
2021/07/27 06:12:16;;;;;;;20.95;18.73;;;;;;;20.00;77.26;99524.45;254609;1104;117260;-67
2021/07/27 06:17:25;;;;;;;25.03;19.40;;;;;;;20.09;77.31;99545.09;255074;1104;116067;-66
2021/07/27 06:22:30;;;;;;;19.30;16.85;;;;;;;20.16;76.89;99539.28;254954;1104;115472;-66
2021/07/27 06:27:35;;;;;;;20.60;17.07;;;;;;;20.15;76.82;99548.51;254694;1103;115915;-65
2021/07/27 06:32:40;;;;;;;21.45;18.35;;;;;;;20.10;77.13;99549.41;254795;1104;115580;-67
2021/07/27 06:37:46;;;;;;;21.38;19.43;;;;;;;20.36;77.54;99552.38;254364;1096;115781;-66
2021/07/27 06:42:51;;;;;;;24.83;22.20;;;;;;;20.81;77.48;99547.05;254130;1104;116303;-66
2021/07/27 06:47:56;;;;;;;24.95;22.33;;;;;;;21.48;76.48;99547.86;254238;1096;118338;-66
2021/07/27 06:53:02;;;;;;;25.68;19.73;;;;;;;21.70;76.06;99566.02;254338;1104;115501;-66
2021/07/27 06:58:07;;;;;;;23.00;20.65;;;;;;;21.83;76.10;99567.81;254797;1104;115568;-66
2021/07/27 07:03:12;;;;;;;22.37;20.07;;;;;;;21.76;75.72;99582.93;254199;1104;115933;-65
2021/07/27 07:08:18;;;;;;;24.88;22.30;;;;;;;21.66;75.92;99581.31;254753;1104;115510;-66
2021/07/27 07:13:24;;;;;;;22.48;20.13;;;;;;;21.77;75.82;99579.11;254211;1096;116017;-67
2021/07/27 07:18:29;;;;;;;24.67;21.10;;;;;;;22.01;75.89;99586.92;254974;1104;115023;-66
2021/07/27 07:23:34;;;;;;;25.05;22.30;;;;;;;22.82;75.43;99579.91;257009;1104;115318;-67
2021/07/27 07:28:40;;;;;;;21.63;19.43;;;;;;;24.26;75.14;99582.94;257097;1103;115219;-66
2021/07/27 07:33:44;;;;;;;19.50;17.60;;;;;;;25.42;74.41;99591.17;257163;1104;116503;-67
2021/07/27 07:38:49;;;;;;;17.97;16.20;;;;;;;25.88;72.28;99586.53;255698;1104;115321;-67
2021/07/27 07:43:54;;;;;;;20.65;18.45;;;;;;;25.93;71.14;99582.78;253413;1104;115550;-67
2021/07/27 07:48:59;;;;;;;20.48;17.85;;;;;;;26.06;71.07;99593.35;254764;1104;116028;-67
2021/07/27 07:54:03;;;;;;;20.58;18.68;;;;;;;26.73;70.60;99593.88;257068;1102;115917;-67
2021/07/27 07:59:08;;;;;;;20.58;18.46;;;;;;;27.36;69.76;99592.20;257009;1103;115454;-67
2021/07/27 08:04:14;;;;;;;19.18;17.28;;;;;;;27.84;68.51;99596.59;257093;1102;116823;-67
2021/07/27 08:09:19;;;;;;;18.50;16.60;;;;;;;27.70;66.97;99592.72;255069;1104;117527;-67
2021/07/27 08:14:26;;;;;;;20.45;18.45;;;;;;;27.71;67.15;99589.63;253808;1103;117324;-67
2021/07/27 08:19:32;;;;;;;17.93;16.23;;;;;;;27.93;66.99;99596.43;253825;1103;116985;-67
2021/07/27 08:24:37;;;;;;;15.43;14.03;;;;;;;27.80;66.09;99598.48;253847;1096;116567;-67
2021/07/27 08:29:41;;;;;;;20.60;18.60;;;;;;;27.97;66.15;99593.78;254717;1103;115958;-67
2021/07/27 08:34:46;;;;;;;15.25;13.85;;;;;;;28.35;66.03;99601.38;253693;1103;117352;-67
2021/07/27 08:39:51;;;;;;;18.50;16.78;;;;;;;28.23;64.93;99605.02;253712;1103;116366;-66
2021/07/27 08:45:03;;;;;;;19.18;17.28;;;;;;;28.34;64.07;99595.10;253645;1103;116421;-67
2021/07/27 08:50:09;;;;;;;25.03;15.60;;;;;;;28.60;65.03;99599.98;253762;1104;115603;-66
2021/07/27 08:55:14;;;;;;;18.03;16.13;;;;;;;28.75;64.14;99610.09;253804;1097;115694;-67
2021/07/27 09:00:19;;;;;;;12.55;11.45;;;;;;;28.67;63.16;99602.09;253656;1097;117060;-67
2021/07/27 09:05:24;;;;;;;12.13;11.10;;;;;;;28.68;62.52;99603.69;253775;1104;116621;-67
2021/07/27 09:10:30;;;;;;;15.10;13.65;;;;;;;28.28;62.28;99607.48;253914;1104;116352;-67
2021/07/27 09:15:45;;;;;;;15.78;14.38;;;;;;;28.24;62.86;99617.56;253416;1103;117193;-68
2021/07/27 09:20:51;;;;;;;15.63;12.98;;;;;;;28.09;62.41;99612.88;255573;1104;115879;-67
2021/07/27 09:25:58;;;;;;;13.85;12.20;;;;;;;27.89;62.14;99611.98;254077;1104;117381;-66
2021/07/27 09:31:02;;;;;;;13.73;12.53;;;;;;;28.16;63.09;99605.60;254807;1103;117452;-68
2021/07/27 09:36:09;;;;;;;14.90;13.60;;;;;;;28.62;62.97;99611.40;254137;1103;117906;-67
2021/07/27 09:41:14;;;;;;;11.47;10.47;;;;;;;28.60;61.21;99601.94;256502;1104;116577;-67
2021/07/27 09:46:22;;;;;;;13.73;12.55;;;;;;;28.75;60.82;99606.56;257096;1103;116490;-66
2021/07/27 09:51:29;;;;;;;14.23;13.10;;;;;;;29.02;61.41;99619.34;257013;1103;116484;-66
2021/07/27 09:56:33;;;;;;;14.00;12.83;;;;;;;29.33;60.91;99623.09;257098;1103;116237;-68
2021/07/27 10:01:40;;;;;;;13.83;12.63;;;;;;;29.23;59.65;99624.47;257152;1103;115830;-67
2021/07/27 10:06:48;;;;;;;14.20;12.80;;;;;;;28.92;59.37;99625.40;257028;1103;116805;-66
2021/07/27 10:12:04;;;;;;;15.05;13.58;;;;;;;29.01;60.62;99625.99;257096;1103;115642;-67
2021/07/27 10:17:09;;;;;;;13.65;12.45;;;;;;;29.41;59.95;99619.34;257231;1102;116170;-68
2021/07/27 10:22:16;;;;;;;14.25;13.05;;;;;;;29.80;60.03;99620.84;257214;1103;114888;-67
2021/07/27 10:27:29;;;;;;;12.47;11.40;;;;;;;30.15;58.16;99617.94;257001;1103;116752;-68
2021/07/27 10:32:34;;;;;;;14.70;13.23;;;;;;;30.19;57.65;99623.49;257144;1103;116244;-68
2021/07/27 10:37:40;;;;;;;11.50;9.75;;;;;;;30.23;56.92;99627.09;255984;1103;137453;-68
2021/07/27 10:42:45;;;;;;;9.68;8.78;;;;;;;30.28;55.83;99629.51;255540;1103;115471;-67
2021/07/27 10:47:55;;;;;;;10.05;9.15;;;;;;;30.13;55.29;99631.25;255057;1096;115059;-67
2021/07/27 10:53:18;;;;;;;9.75;8.88;;;;;;;30.28;55.14;99628.71;253673;1103;115284;-68
2021/07/27 10:58:23;;;;;;;7.45;6.85;;;;;;;30.33;54.04;99631.95;255581;1104;115190;-68
2021/07/27 11:03:28;;;;;;;8.68;7.78;;;;;;;30.48;53.68;99627.47;254964;1103;115463;-68
2021/07/27 11:08:34;;;;;;;7.93;7.33;;;;;;;30.59;53.28;99622.92;253621;1104;114523;-68
2021/07/27 11:13:39;;;;;;;7.88;7.13;;;;;;;30.72;52.34;99621.55;253647;1103;117352;-68
2021/07/27 11:18:46;;;;;;;8.50;7.70;;;;;;;30.44;51.81;99624.66;254279;1103;114584;-68
2021/07/27 11:23:51;;;;;;;8.90;7.78;;;;;;;30.42;52.19;99615.98;254602;1103;115587;-68
2021/07/27 11:28:55;;;;;;;8.90;7.85;;;;;;;30.39;52.19;99613.97;253773;1104;115985;-67
2021/07/27 11:34:00;;;;;;;10.13;9.23;;;;;;;30.33;51.22;99615.45;253717;1104;115406;-68
2021/07/27 11:39:06;;;;;;;6.20;5.70;;;;;;;30.51;51.13;99617.69;253652;1102;115487;-68
2021/07/27 11:44:12;;;;;;;7.55;6.85;;;;;;;30.56;50.47;99609.12;253817;1103;114956;-68
2021/07/27 11:49:19;;;;;;;12.83;6.95;;;;;;;30.74;50.61;99602.71;253710;1104;115487;-68
2021/07/27 11:54:25;;;;;;;7.35;6.75;;;;;;;30.77;50.14;99590.17;253716;1102;115281;-68
2021/07/27 11:59:31;;;;;;;6.35;5.83;;;;;;;30.85;49.53;99591.85;255386;1104;115088;-67
2021/07/27 12:04:36;;;;;;;6.88;5.75;;;;;;;31.01;49.00;99586.92;257031;1103;115497;-67
2021/07/27 12:09:44;;;;;;;6.28;5.78;;;;;;;30.95;48.09;99584.88;257267;1103;115742;-67
2021/07/27 12:14:49;;;;;;;6.00;5.58;;;;;;;31.00;47.23;99581.79;257270;1102;115665;-67
2021/07/27 12:19:56;;;;;;;5.27;4.87;;;;;;;30.89;47.54;99575.36;257294;1102;116866;-67
2021/07/27 12:25:00;;;;;;;5.37;4.20;;;;;;;30.79;46.53;99571.33;254506;1102;116802;-67
2021/07/27 12:30:08;;;;;;;6.55;5.20;;;;;;;30.72;46.78;99566.52;253775;1104;116415;-67
2021/07/27 12:35:13;;;;;;;4.80;4.30;;;;;;;30.81;47.55;99568.99;253839;1104;116752;-67
2021/07/27 12:40:17;;;;;;;7.48;4.98;;;;;;;30.89;46.31;99556.88;253770;1104;117761;-67
2021/07/27 12:45:22;;;;;;;4.17;3.83;;;;;;;30.94;46.11;99553.80;255104;1104;115559;-67
2021/07/27 12:50:27;;;;;;;5.15;4.75;;;;;;;30.86;45.26;99538.39;256226;1097;135919;-67
2021/07/27 12:55:33;;;;;;;5.30;4.80;;;;;;;30.87;45.60;99531.72;253775;1104;136756;-67
2021/07/27 13:00:37;;;;;;;5.60;4.10;;;;;;;30.77;45.12;99529.63;253493;1104;115309;-67
2021/07/27 13:05:42;;;;;;;4.97;4.57;;;;;;;30.71;44.83;99520.11;254043;1104;115970;-67
2021/07/27 13:10:49;;;;;;;4.80;4.40;;;;;;;30.63;44.39;99516.47;253749;1103;115882;-68
2021/07/27 13:15:57;;;;;;;4.47;4.10;;;;;;;30.63;44.68;99513.72;253640;1104;114858;-68
2021/07/27 13:21:03;;;;;;;4.90;4.10;;;;;;;30.61;44.15;99515.27;253669;1103;115555;-68
2021/07/27 13:26:09;;;;;;;3.75;3.45;;;;;;;30.60;44.82;99505.42;253643;1102;114958;-68
2021/07/27 13:31:15;;;;;;;4.50;4.13;;;;;;;30.70;44.32;99507.52;254086;1103;115330;-67
2021/07/27 13:36:19;;;;;;;3.65;3.35;;;;;;;30.77;44.06;99524.13;253589;1097;115072;-68
2021/07/27 13:41:25;;;;;;;3.98;3.68;;;;;;;30.69;44.36;99511.44;253611;1096;115169;-68
2021/07/27 13:46:33;;;;;;;3.80;3.50;;;;;;;30.60;43.63;99514.47;256122;1102;115069;-69
2021/07/27 13:51:38;;;;;;;5.13;3.93;;;;;;;30.67;43.68;99519.27;253885;1104;115104;-69
2021/07/27 13:56:43;;;;;;;3.00;2.90;;;;;;;30.63;42.86;99508.22;253776;1102;115102;-68
2021/07/27 14:01:48;;;;;;;4.00;3.70;;;;;;;30.51;43.55;99510.41;253731;1104;115124;-68
2021/07/27 14:06:54;;;;;;;3.45;3.15;;;;;;;30.57;42.85;99500.70;257017;1103;114572;-69
2021/07/27 14:11:59;;;;;;;3.50;3.20;;;;;;;30.55;43.09;99503.00;257122;1103;115449;-70
2021/07/27 14:17:05;;;;;;;4.90;3.45;;;;;;;30.43;43.16;99496.56;257067;1102;120046;-69
2021/07/27 14:22:15;;;;;;;3.73;3.43;;;;;;;30.49;43.27;99495.07;257316;1103;115433;-68
2021/07/27 14:27:20;;;;;;;5.30;4.13;;;;;;;30.55;43.08;99495.54;255682;1103;114828;-70
2021/07/27 14:32:25;;;;;;;4.75;4.35;;;;;;;30.67;42.76;99502.77;256248;1104;115149;-68
2021/07/27 14:37:31;;;;;;;3.38;3.08;;;;;;;30.57;42.29;99508.95;257074;1103;115763;-68
2021/07/27 14:42:36;;;;;;;4.17;3.70;;;;;;;30.33;42.78;99504.66;257030;1101;116259;-68
2021/07/27 14:47:41;;;;;;;3.93;3.57;;;;;;;30.21;42.76;99507.66;257151;1103;115108;-69
2021/07/27 14:52:45;;;;;;;3.65;3.30;;;;;;;29.95;42.58;99500.19;257128;1103;115218;-68
2021/07/27 14:57:49;;;;;;;4.18;3.78;;;;;;;30.00;42.76;99497.92;257121;1102;115680;-67
2021/07/27 15:02:54;;;;;;;7.70;4.28;;;;;;;30.00;43.13;99499.88;257133;1103;116185;-67
2021/07/27 15:08:00;;;;;;;4.83;4.47;;;;;;;29.96;42.38;99490.78;255829;1103;114805;-67
2021/07/27 15:13:05;;;;;;;4.83;4.43;;;;;;;29.97;42.88;99501.38;253574;1100;114778;-67
2021/07/27 15:18:11;;;;;;;4.08;3.70;;;;;;;29.76;42.57;99515.59;257032;1103;115123;-67
2021/07/27 15:23:15;;;;;;;5.18;4.30;;;;;;;29.88;42.69;99503.61;255457;1104;115153;-68
2021/07/27 15:28:21;;;;;;;4.93;4.43;;;;;;;29.95;42.98;99505.68;253641;1096;115033;-68
2021/07/27 15:33:27;;;;;;;4.45;4.10;;;;;;;29.89;43.48;99498.91;253523;1097;114605;-69
2021/07/27 15:38:36;;;;;;;10.58;3.98;;;;;;;29.74;43.71;99501.42;255796;1104;115191;-66
2021/07/27 15:43:41;;;;;;;4.78;4.38;;;;;;;29.60;43.58;99498.47;253601;1104;115632;-67
2021/07/27 15:48:45;;;;;;;5.60;4.63;;;;;;;29.47;43.19;99497.84;253769;1103;114856;-67
2021/07/27 15:53:49;;;;;;;4.80;4.20;;;;;;;29.35;43.30;99492.50;253841;1103;115055;-67
2021/07/27 15:58:56;;;;;;;4.85;4.28;;;;;;;29.17;43.46;99485.91;253565;1103;114985;-70
2021/07/27 16:04:03;;;;;;;5.23;4.75;;;;;;;28.98;43.86;99483.22;254719;1104;116227;-68
2021/07/27 16:09:07;;;;;;;5.38;4.45;;;;;;;28.74;43.91;99492.54;253645;1104;114961;-68
2021/07/27 16:14:12;;;;;;;4.70;4.30;;;;;;;28.47;44.03;99499.80;253600;1103;114845;-68
2021/07/27 16:19:21;;;;;;;4.00;3.70;;;;;;;28.22;44.82;99503.95;253925;1104;115103;-70
2021/07/27 16:24:24;;;;;;;6.48;4.75;;;;;;;28.00;45.39;99508.14;253561;1104;115558;-70
2021/07/27 16:29:29;;;;;;;5.00;4.60;;;;;;;27.88;45.48;99505.50;253741;1097;115462;-70
2021/07/27 16:34:33;;;;;;;;;;;;;;;27.76;45.66;99504.47;254925;1104;115266;-69
2021/07/27 16:39:40;;;;;;;3.78;3.43;;;;;;;27.67;46.02;99500.31;258014;1103;103654;-69
2021/07/27 16:44:43;;;;;;;4.93;4.50;;;;;;;27.59;46.11;99520.45;257066;1104;115086;-69
2021/07/27 16:49:48;;;;;;;9.55;4.20;;;;;;;27.53;47.26;99519.88;257112;1102;114744;-68
2021/07/27 16:54:52;;;;;;;4.78;4.38;;;;;;;27.45;48.02;99526.34;257139;1102;115433;-68
2021/07/27 16:59:57;;;;;;;4.50;4.13;;;;;;;27.35;48.61;99526.85;257135;1102;116718;-69
2021/07/27 17:05:06;;;;;;;4.23;3.83;;;;;;;27.30;49.58;99530.64;257295;1103;115541;-69
2021/07/27 17:10:20;;;;;;;4.33;3.97;;;;;;;27.32;50.10;99527.55;257136;1103;116826;-70
2021/07/27 17:15:28;;;;;;;4.13;3.83;;;;;;;27.28;50.86;99535.67;257122;1103;114982;-69
2021/07/27 17:20:34;;;;;;;4.40;4.10;;;;;;;27.29;50.74;99531.78;255071;1096;116254;-69
2021/07/27 17:25:39;;;;;;;5.10;4.60;;;;;;;27.24;50.32;99533.98;253902;1104;115107;-69
2021/07/27 17:30:45;;;;;;;3.85;3.55;;;;;;;27.13;50.87;99525.50;253600;1104;115374;-70
2021/07/27 17:35:52;;;;;;;6.13;4.15;;;;;;;26.92;51.12;99513.93;254750;1104;115223;-69
2021/07/27 17:40:57;;;;;;;5.28;4.03;;;;;;;26.72;51.33;99532.14;254686;1102;115572;-69
2021/07/27 17:46:05;;;;;;;5.93;5.23;;;;;;;26.45;51.55;99522.77;256204;1104;114679;-68
2021/07/27 17:51:14;;;;;;;6.13;4.35;;;;;;;26.20;52.40;99530.19;253824;1103;115804;-68
2021/07/27 17:56:19;;;;;;;5.08;4.58;;;;;;;25.94;53.18;99532.48;253679;1104;115923;-68
2021/07/27 18:01:25;;;;;;;4.78;4.38;;;;;;;25.67;53.27;99540.22;253562;1104;115995;-68
2021/07/27 18:06:31;;;;;;;4.90;4.50;;;;;;;25.42;54.63;99535.80;254613;1103;116129;-68
2021/07/27 18:11:37;;;;;;;4.33;4.03;;;;;;;25.15;55.43;99534.48;253621;1104;115964;-69
2021/07/27 18:16:44;;;;;;;4.95;4.45;;;;;;;24.95;55.87;99538.86;253590;1104;116685;-69
2021/07/27 18:21:50;;;;;;;8.58;4.35;;;;;;;24.77;56.17;99538.16;253515;1104;117097;-70
2021/07/27 18:26:55;;;;;;;4.68;4.38;;;;;;;24.60;57.13;99546.48;253673;1103;115101;-69
2021/07/27 18:32:00;;;;;;;4.95;4.45;;;;;;;24.38;57.40;99546.82;253605;1104;115757;-69
2021/07/27 18:37:07;;;;;;;5.05;4.68;;;;;;;24.05;57.82;99541.22;253652;1102;115585;-68
2021/07/27 18:42:13;;;;;;;4.85;4.43;;;;;;;23.70;58.18;99544.09;253800;1097;114754;-68
2021/07/27 18:47:18;;;;;;;;;;;;;;;23.44;58.70;99546.88;257097;1103;116104;-69
2021/07/27 18:52:30;;;;;;;5.63;4.73;;;;;;;23.29;59.20;99552.02;257963;1103;101424;-70
2021/07/27 18:57:34;;;;;;;4.88;4.45;;;;;;;23.13;59.67;99543.59;257223;1101;115417;-68
2021/07/27 19:02:40;;;;;;;4.93;4.50;;;;;;;22.99;59.64;99546.47;257136;1104;114396;-68
2021/07/27 19:07:46;;;;;;;3.67;3.37;;;;;;;22.78;59.60;99556.41;257039;1102;115610;-67
2021/07/27 19:12:51;;;;;;;4.38;3.98;;;;;;;22.33;60.08;99556.64;255061;1104;115443;-68
2021/07/27 19:17:56;;;;;;;5.08;4.68;;;;;;;22.05;61.10;99555.30;253629;1103;116742;-68
2021/07/27 19:23:02;;;;;;;6.30;5.80;;;;;;;21.86;61.35;99558.24;253778;1104;116509;-68
2021/07/27 19:28:06;;;;;;;6.28;4.98;;;;;;;21.71;61.84;99556.73;255137;1102;117402;-66
2021/07/27 19:33:11;;;;;;;4.95;4.53;;;;;;;21.43;61.78;99552.61;253490;1103;117030;-69
2021/07/27 19:38:17;;;;;;;9.70;4.93;;;;;;;21.22;62.37;99562.38;253861;1104;116682;-67
2021/07/27 19:43:36;;;;;;;6.90;5.53;;;;;;;21.12;62.80;99558.77;256180;1104;115291;-67
2021/07/27 19:48:42;;;;;;;5.45;4.95;;;;;;;21.13;63.41;99554.95;253416;1097;115787;-67
2021/07/27 19:53:46;;;;;;;7.75;4.75;;;;;;;21.04;63.04;99562.23;253552;1104;116584;-67
2021/07/27 19:58:50;;;;;;;4.70;4.38;;;;;;;20.85;63.38;99558.88;254495;1097;117165;-67
2021/07/27 20:03:58;;;;;;;9.77;5.23;;;;;;;20.68;63.75;99553.34;256642;1104;115610;-67
2021/07/27 20:09:04;;;;;;;5.08;4.68;;;;;;;20.54;64.13;99561.48;257054;1103;115205;-67
2021/07/27 20:14:09;;;;;;;13.93;6.03;;;;;;;20.46;64.48;99564.94;255450;1104;115063;-66
2021/07/27 20:19:16;;;;;;;11.93;5.90;;;;;;;20.48;64.87;99566.20;256427;1103;115971;-68
2021/07/27 20:24:23;;;;;;;7.27;5.50;;;;;;;20.56;65.50;99566.59;255300;1104;115477;-67
2021/07/27 20:29:28;;;;;;;6.93;6.33;;;;;;;20.41;65.11;99567.75;254564;1103;114919;-66
2021/07/27 20:34:33;;;;;;;6.88;5.53;;;;;;;20.28;65.63;99563.91;256477;1103;115223;-67
2021/07/27 20:39:37;;;;;;;6.98;6.23;;;;;;;20.15;66.02;99570.16;255389;1098;117661;-66
2021/07/27 20:44:42;;;;;;;8.45;7.00;;;;;;;20.12;66.35;99576.97;255963;1103;117285;-67
2021/07/27 20:49:49;;;;;;;7.00;6.40;;;;;;;20.06;66.61;99585.48;253767;1098;115680;-66
2021/07/27 20:54:55;;;;;;;12.08;7.98;;;;;;;19.93;66.74;99599.80;257235;1103;116079;-67
2021/07/27 20:59:59;;;;;;;12.13;9.20;;;;;;;19.92;67.44;99595.48;257110;1104;115328;-66
2021/07/27 21:05:04;;;;;;;9.43;8.37;;;;;;;19.88;67.26;99608.00;257239;1104;116460;-67
2021/07/27 21:10:09;;;;;;;14.73;9.23;;;;;;;19.95;67.50;99608.42;257094;1103;114707;-67
2021/07/27 21:15:13;;;;;;;11.03;8.15;;;;;;;19.89;67.38;99606.91;257117;1104;115458;-67
2021/07/27 21:20:19;;;;;;;12.10;8.55;;;;;;;19.77;67.70;99610.91;254932;1099;115343;-67
2021/07/27 21:25:24;;;;;;;9.93;8.15;;;;;;;19.70;67.71;99612.40;254759;1103;138869;-67
2021/07/27 21:30:30;;;;;;;13.60;9.23;;;;;;;19.72;68.09;99615.61;253883;1103;115321;-66
2021/07/27 21:35:35;;;;;;;17.53;11.65;;;;;;;19.76;68.40;99614.72;256712;1103;115528;-67
2021/07/27 21:40:40;;;;;;;13.58;11.50;;;;;;;19.75;68.52;99613.11;257183;1104;115330;-67
2021/07/27 21:45:46;;;;;;;11.80;7.83;;;;;;;19.62;68.18;99621.98;253907;1104;115682;-67
2021/07/27 21:50:52;;;;;;;12.48;8.08;;;;;;;19.45;68.26;99630.64;255473;1103;115033;-66
2021/07/27 21:55:58;;;;;;;8.15;7.45;;;;;;;19.41;68.60;99636.92;254466;1104;115552;-66
2021/07/27 22:01:05;;;;;;;9.40;8.38;;;;;;;19.32;68.44;99639.48;255913;1104;115311;-67
2021/07/27 22:06:09;;;;;;;10.55;9.45;;;;;;;19.17;68.80;99640.55;255194;1100;115625;-66
2021/07/27 22:11:14;;;;;;;14.38;9.50;;;;;;;19.13;68.88;99634.11;254361;1104;115575;-67
2021/07/27 22:16:19;;;;;;;10.63;9.55;;;;;;;19.00;69.23;99640.24;254120;1103;115306;-67
2021/07/27 22:21:25;;;;;;;14.55;8.63;;;;;;;18.88;69.06;99634.49;256108;1104;115388;-66
2021/07/27 22:26:30;;;;;;;7.33;6.63;;;;;;;18.72;69.18;99641.19;254724;1103;115522;-66
2021/07/27 22:31:35;;;;;;;9.43;8.35;;;;;;;18.61;69.78;99645.13;255472;1104;115292;-66
2021/07/27 22:36:39;;;;;;;10.18;7.38;;;;;;;18.62;70.00;99639.44;256628;1104;114849;-66
2021/07/27 22:41:44;;;;;;;10.95;8.60;;;;;;;18.56;69.91;99637.06;255902;1103;115954;-66
2021/07/27 22:46:51;;;;;;;13.30;8.73;;;;;;;18.51;69.71;99632.52;255874;1104;114812;-66
2021/07/27 22:51:57;;;;;;;10.05;8.35;;;;;;;18.44;69.86;99629.37;255523;1103;115953;-66
2021/07/27 22:57:03;;;;;;;7.33;6.65;;;;;;;18.45;70.42;99618.28;256362;1102;114806;-67
2021/07/27 23:02:13;;;;;;;8.93;7.78;;;;;;;18.37;70.46;99616.22;255991;1103;115583;-67
2021/07/27 23:07:19;;;;;;;10.92;8.82;;;;;;;18.30;70.63;99612.28;257159;1103;115296;-68
2021/07/27 23:12:25;;;;;;;8.03;7.23;;;;;;;18.33;71.24;99607.12;257081;1103;117543;-67
2021/07/27 23:17:30;;;;;;;10.80;8.13;;;;;;;18.46;71.26;99606.39;257299;1103;114634;-67
2021/07/27 23:22:38;;;;;;;11.38;7.80;;;;;;;18.57;71.23;99600.88;256159;1104;115273;-66
2021/07/27 23:27:43;;;;;;;7.43;6.83;;;;;;;18.45;70.99;99593.19;257232;1103;115028;-66
2021/07/27 23:32:48;;;;;;;8.17;7.13;;;;;;;18.33;71.11;99590.92;257173;1104;114738;-67
2021/07/27 23:37:55;;;;;;;8.98;7.93;;;;;;;18.29;71.13;99584.50;256389;1103;114957;-67
2021/07/27 23:43:00;;;;;;;8.28;7.58;;;;;;;18.30;71.58;99572.61;255608;1103;115085;-66